MAPA DE AEROPUERTO

INFORMACIÓN METAR y TAF

METAR FOR GCXO
ADDS - METARS form results

(2305 UTC 31 March 2020)
Data provider http://aviationweather.gov/metar/data/
 
METAR text: GCXO 312300Z AUTO 32004KT 290V350 9999 FEW005 BKN019 13/12 Q1018
Conditions at: GCXO (TENERIFE/LOS ROD, ES) observed 2300 UTC 31 March 2020
Temperature: 13.0°C (55°F)
Dewpoint: 12.0°C (54°F) [RH = 94%]
Pressure (altimeter): 30.06 inches Hg (1018.0 mb)
Winds: from the NW (320 degrees) at 5 MPH (4 knots; 2.1 m/s)
Visibility: 6 or more miles (10+ km)
Ceiling: 1900 feet AGL
Clouds: few clouds at 500 feet AGL
broken clouds at 1900 feet AGL
Weather: no significant weather observed at this time

METAR text: GCXO 312230Z AUTO 32006KT 9999 SCT007 BKN016 OVC022 14/13 Q1018
Conditions at: GCXO (TENERIFE/LOS ROD, ES) observed 2230 UTC 31 March 2020
Temperature: 14.0°C (57°F)
Dewpoint: 13.0°C (55°F) [RH = 94%]
Pressure (altimeter): 30.06 inches Hg (1018.0 mb)
Winds: from the NW (320 degrees) at 7 MPH (6 knots; 3.1 m/s)
Visibility: 6 or more miles (10+ km)
Ceiling: 1600 feet AGL
Clouds: scattered clouds at 700 feet AGL
broken clouds at 1600 feet AGL
overcast cloud deck at 2200 feet AGL
Weather: no significant weather observed at this time

Forecast for: GCXO (TENERIFE/LOS ROD, ES)
Text: TAF GCXO 312000Z 3121/0121 30010KT 9999 SCT012 TX19/0113Z TN12/0106Z
Forecast period: 2100 UTC 31 March 2020 to 2100 UTC 01 April 2020
Forecast type: FROM: standard forecast or significant change
Winds: from the WNW (300 degrees) at 12 MPH (10 knots; 5.1 m/s)
Visibility: 6 or more miles 10+ km)
Ceiling: at least 12,000 feet AGL
Clouds: scattered clouds at 1200 feet AGL
Weather: no significant weather forecast for this period
Text: TEMPO 3121/0109 BKN010
Forecast period: 2100 UTC 31 March 2020 to 0900 UTC 01 April 2020
Forecast type: TEMPORARY: The following changes expected for less than half the time period
Visibility: missing
Ceiling: 1000 feet AGL
Clouds: broken clouds at 1000 feet AGL
Weather: no significant weather forecast for this period
Text: PROB40 0111/0116 12005KT
Forecast period: 1100 to 1600 UTC 01 April 2020
Forecast type: PROBABLE: 40 percent likelihood of the following during this time
Winds: from the ESE (120 degrees) at 6 MPH (5 knots; 2.6 m/s)
Visibility: missing
Ceiling: unknown
Clouds: missing
Weather: no significant weather forecast for this period